Time;durP1;ratioP1;P1;durP2;ratioP2;P2;SDS_P1;SDS_P2;PMS_P1;PMS_P2;Temp;Humidity;BMP_temperature;BMP_pressure;BME280_temperature;BME280_humidity;BME280_pressure;Samples;Min_cycle;Max_cycle;Signal;HPM_P1;HPM_P2
2022/09/15 00:00:28;;;;;;;17.23;9.70;;;;;;;;;;5075108;28;20199;-53
2022/09/15 00:03:17;;;;;;;14.95;9.40;;;;;;;;;;5075548;28;20239;-52
2022/09/15 00:05:44;;;;;;;13.32;9.82;;;;;;;;;;5075139;28;20207;-53
2022/09/15 00:08:12;;;;;;;13.63;9.82;;;;;;;;;;5071194;28;20231;-53
2022/09/15 00:10:47;;;;;;;15.02;9.60;;;;;;;;;;5075409;28;20211;-52
2022/09/15 00:13:15;;;;;;;15.57;9.32;;;;;;;;;;5074783;28;20191;-55
2022/09/15 00:15:41;;;;;;;14.65;9.55;;;;;;;;;;5072655;28;20211;-50
2022/09/15 00:18:08;;;;;;;14.10;9.18;;;;;;;;;;5074986;28;20206;-51
2022/09/15 00:20:44;;;;;;;16.38;10.30;;;;;;;;;;5074718;28;20207;-50
2022/09/15 00:23:13;;;;;;;12.40;9.27;;;;;;;;;;5074251;28;20202;-52
2022/09/15 00:25:47;;;;;;;16.00;10.05;;;;;;;;;;5074963;28;20268;-53
2022/09/15 00:28:16;;;;;;;19.85;9.20;;;;;;;;;;5075042;28;20199;-49
2022/09/15 00:30:47;;;;;;;12.85;9.65;;;;;;;;;;5074932;28;20550;-49
2022/09/15 00:33:15;;;;;;;13.90;9.40;;;;;;;;;;5074848;28;20290;-49
2022/09/15 00:35:43;;;;;;;12.75;9.18;;;;;;;;;;5074896;28;20210;-49
2022/09/15 00:38:11;;;;;;;13.27;9.05;;;;;;;;;;5074641;28;20210;-53
2022/09/15 00:40:45;;;;;;;13.18;9.25;;;;;;;;;;5074875;28;20204;-51
2022/09/15 00:43:13;;;;;;;12.80;9.18;;;;;;;;;;5074698;28;20206;-49
2022/09/15 00:45:40;;;;;;;12.85;9.20;;;;;;;;;;5075067;28;20313;-52
2022/09/15 00:48:10;;;;;;;18.08;9.32;;;;;;;;;;5074744;28;20538;-49
2022/09/15 00:50:38;;;;;;;14.07;9.40;;;;;;;;;;5075201;28;20227;-53
2022/09/15 00:53:07;;;;;;;12.82;9.40;;;;;;;;;;5073983;28;20203;-49
2022/09/15 00:55:37;;;;;;;19.00;9.90;;;;;;;;;;5073877;28;20227;-50
2022/09/15 00:58:18;;;;;;;16.75;9.77;;;;;;;;;;5074663;28;20236;-49
2022/09/15 01:00:51;;;;;;;14.55;9.77;;;;;;;;;;5078568;28;20708;-50
2022/09/15 01:03:18;;;;;;;13.02;9.05;;;;;;;;;;5072220;28;20715;-56
2022/09/15 01:05:49;;;;;;;13.48;10.05;;;;;;;;;;5078698;28;20533;-55
2022/09/15 01:08:26;;;;;;;13.35;9.68;;;;;;;;;;5077835;28;20203;-55
2022/09/15 01:10:53;;;;;;;16.00;10.13;;;;;;;;;;5078869;28;20567;-54
2022/09/15 01:13:20;;;;;;;13.18;9.65;;;;;;;;;;5076127;28;20207;-54
2022/09/15 01:16:11;;;;;;;12.85;9.48;;;;;;;;;;5077719;28;20195;-53
2022/09/15 01:18:47;;;;;;;13.52;9.05;;;;;;;;;;5077633;28;20203;-51
2022/09/15 01:21:20;;;;;;;14.32;10.13;;;;;;;;;;5078050;28;20597;-51
2022/09/15 01:24:14;;;;;;;13.10;9.57;;;;;;;;;;5077780;28;20184;-49
2022/09/15 01:27:09;;;;;;;19.95;9.07;;;;;;;;;;5078279;28;20280;-53
2022/09/15 01:30:06;;;;;;;12.15;8.77;;;;;;;;;;5078153;28;20202;-53
2022/09/15 01:33:03;;;;;;;14.05;9.07;;;;;;;;;;5078207;28;20191;-50
2022/09/15 01:35:40;;;;;;;13.13;9.43;;;;;;;;;;5077113;28;20549;-49
2022/09/15 01:38:20;;;;;;;14.95;9.70;;;;;;;;;;5077438;28;20210;-53
2022/09/15 01:40:53;;;;;;;11.27;9.35;;;;;;;;;;5077558;28;20202;-52
2022/09/15 01:43:22;;;;;;;15.15;9.45;;;;;;;;;;5077018;28;20199;-50
2022/09/15 01:45:50;;;;;;;17.08;10.60;;;;;;;;;;5076511;28;20555;-52
2022/09/15 01:48:19;;;;;;;14.52;10.48;;;;;;;;;;5076881;28;20290;-50
2022/09/15 01:50:49;;;;;;;15.15;10.90;;;;;;;;;;5076778;28;20242;-51
2022/09/15 01:53:19;;;;;;;15.25;10.52;;;;;;;;;;5076574;28;20203;-49
2022/09/15 01:55:52;;;;;;;15.57;10.77;;;;;;;;;;5076807;28;20272;-50
2022/09/15 01:58:20;;;;;;;14.77;11.15;;;;;;;;;;5071615;28;20239;-56
2022/09/15 02:00:52;;;;;;;19.33;12.27;;;;;;;;;;5075234;28;20536;-49
2022/09/15 02:03:25;;;;;;;17.45;11.32;;;;;;;;;;5077626;28;20191;-53
2022/09/15 02:06:01;;;;;;;14.43;10.98;;;;;;;;;;5076626;28;20214;-54
2022/09/15 02:08:35;;;;;;;19.23;12.00;;;;;;;;;;5026760;28;20623;-56
2022/09/15 02:11:11;;;;;;;16.85;11.65;;;;;;;;;;5077349;28;20211;-54
2022/09/15 02:13:46;;;;;;;17.08;11.70;;;;;;;;;;5077549;28;20214;-55
2022/09/15 02:16:18;;;;;;;17.27;11.27;;;;;;;;;;5076857;28;20237;-50
2022/09/15 02:19:15;;;;;;;15.32;11.23;;;;;;;;;;5076403;28;20585;-54
2022/09/15 02:21:56;;;;;;;15.65;10.30;;;;;;;;;;5077052;28;20261;-52
2022/09/15 02:24:34;;;;;;;14.20;9.85;;;;;;;;;;5076294;28;20199;-53
2022/09/15 02:27:03;;;;;;;17.33;11.73;;;;;;;;;;5076430;28;20207;-54
2022/09/15 02:29:32;;;;;;;18.33;11.52;;;;;;;;;;5077052;28;20213;-53
2022/09/15 02:32:01;;;;;;;15.88;11.77;;;;;;;;;;5076977;28;20273;-56
2022/09/15 02:34:36;;;;;;;14.43;11.15;;;;;;;;;;5077230;28;20183;-54
2022/09/15 02:37:04;;;;;;;16.70;12.50;;;;;;;;;;5076565;28;20242;-52
2022/09/15 02:39:34;;;;;;;17.13;12.05;;;;;;;;;;5076054;28;20585;-49
2022/09/15 02:42:02;;;;;;;15.38;12.13;;;;;;;;;;5075857;28;20525;-54
2022/09/15 02:44:29;;;;;;;16.83;11.93;;;;;;;;;;5075881;28;20219;-52
2022/09/15 02:46:57;;;;;;;16.25;11.43;;;;;;;;;;5076653;28;20286;-52
2022/09/15 02:49:25;;;;;;;18.45;11.50;;;;;;;;;;5076568;28;20204;-51
2022/09/15 02:51:51;;;;;;;17.63;12.68;;;;;;;;;;5058379;28;20237;-50
2022/09/15 02:54:18;;;;;;;15.77;12.35;;;;;;;;;;5069261;28;20478;-54
2022/09/15 02:56:46;;;;;;;15.60;12.07;;;;;;;;;;5074344;28;20210;-50
2022/09/15 02:59:13;;;;;;;17.38;12.20;;;;;;;;;;5076094;28;20203;-55
2022/09/15 03:01:40;;;;;;;15.65;11.95;;;;;;;;;;5076426;28;20212;-55
2022/09/15 03:04:07;;;;;;;17.42;12.10;;;;;;;;;;5076366;28;20272;-50
2022/09/15 03:06:34;;;;;;;17.45;12.35;;;;;;;;;;5076147;28;20547;-53
2022/09/15 03:09:05;;;;;;;18.45;13.00;;;;;;;;;;5076001;28;20203;-50
2022/09/15 03:11:32;;;;;;;16.75;12.25;;;;;;;;;;5076043;28;20231;-54
2022/09/15 03:14:02;;;;;;;17.65;12.70;;;;;;;;;;5076078;28;20204;-55
2022/09/15 03:16:30;;;;;;;22.70;12.82;;;;;;;;;;5076141;28;20199;-52
2022/09/15 03:18:58;;;;;;;17.02;13.20;;;;;;;;;;5076432;28;20218;-54
2022/09/15 03:21:26;;;;;;;18.08;12.32;;;;;;;;;;5075698;28;20294;-49
2022/09/15 03:23:53;;;;;;;17.52;12.63;;;;;;;;;;5075930;28;20203;-50
2022/09/15 03:26:20;;;;;;;18.98;12.82;;;;;;;;;;5076558;28;20199;-53
2022/09/15 03:28:46;;;;;;;24.20;13.77;;;;;;;;;;5075641;28;20203;-56
2022/09/15 03:31:13;;;;;;;19.60;13.55;;;;;;;;;;5075773;28;20306;-54
2022/09/15 03:33:41;;;;;;;17.42;12.57;;;;;;;;;;5075775;28;20285;-54
2022/09/15 03:36:08;;;;;;;15.60;12.68;;;;;;;;;;5075514;28;20200;-55
2022/09/15 03:38:35;;;;;;;16.27;12.82;;;;;;;;;;5075620;28;20196;-53
2022/09/15 03:41:06;;;;;;;18.23;12.48;;;;;;;;;;5075628;28;20207;-55
2022/09/15 03:43:34;;;;;;;18.27;12.57;;;;;;;;;;5075498;28;20249;-55
2022/09/15 03:46:02;;;;;;;16.05;12.10;;;;;;;;;;5075440;28;20575;-56
2022/09/15 03:48:31;;;;;;;17.80;12.13;;;;;;;;;;5075445;28;20203;-56
2022/09/15 03:50:58;;;;;;;19.80;13.45;;;;;;;;;;5067627;28;20231;-56
2022/09/15 03:53:25;;;;;;;16.02;13.35;;;;;;;;;;5075086;28;20210;-55
2022/09/15 03:55:52;;;;;;;18.98;13.98;;;;;;;;;;5074835;28;20660;-55
2022/09/15 03:58:19;;;;;;;18.42;13.40;;;;;;;;;;5074710;28;20265;-55
2022/09/15 04:00:46;;;;;;;16.85;13.52;;;;;;;;;;5074617;28;20207;-57
2022/09/15 04:03:13;;;;;;;18.05;12.90;;;;;;;;;;5072715;28;20227;-58
2022/09/15 04:05:41;;;;;;;21.95;14.73;;;;;;;;;;5082898;28;20253;-58
2022/09/15 04:08:11;;;;;;;19.25;14.23;;;;;;;;;;5073941;28;20624;-58
2022/09/15 04:10:40;;;;;;;19.80;13.50;;;;;;;;;;5071792;28;20227;-55
2022/09/15 04:13:07;;;;;;;21.67;15.60;;;;;;;;;;5066325;28;20255;-56
2022/09/15 04:15:34;;;;;;;21.15;14.23;;;;;;;;;;5058376;28;20220;-57
2022/09/15 04:18:01;;;;;;;19.17;14.30;;;;;;;;;;5064150;28;20291;-56
2022/09/15 04:20:28;;;;;;;20.42;14.30;;;;;;;;;;5074149;28;20289;-56
2022/09/15 04:22:55;;;;;;;19.73;14.00;;;;;;;;;;5073373;28;20706;-54
2022/09/15 04:25:23;;;;;;;20.00;14.82;;;;;;;;;;5074135;28;20227;-52
2022/09/15 04:27:49;;;;;;;19.05;14.05;;;;;;;;;;5074058;28;20242;-54
2022/09/15 04:30:16;;;;;;;20.13;14.40;;;;;;;;;;5074169;28;20261;-51
2022/09/15 04:32:44;;;;;;;20.38;14.52;;;;;;;;;;5072197;28;20570;-56
2022/09/15 04:35:11;;;;;;;20.10;14.98;;;;;;;;;;5074067;28;20288;-49
2022/09/15 04:37:38;;;;;;;21.60;15.18;;;;;;;;;;5074159;28;20231;-52
2022/09/15 04:40:06;;;;;;;21.55;15.57;;;;;;;;;;5073364;28;20250;-55
2022/09/15 04:42:33;;;;;;;19.33;14.82;;;;;;;;;;5076709;28;20310;-56
2022/09/15 04:44:59;;;;;;;21.55;15.52;;;;;;;;;;5082142;28;20234;-57
2022/09/15 04:47:27;;;;;;;22.88;16.15;;;;;;;;;;5082034;28;20651;-56
2022/09/15 04:49:54;;;;;;;24.45;16.48;;;;;;;;;;5092996;28;20288;-56
2022/09/15 04:52:21;;;;;;;20.73;16.38;;;;;;;;;;5092777;28;20238;-57
2022/09/15 04:54:48;;;;;;;19.73;16.10;;;;;;;;;;5092590;28;20253;-58
2022/09/15 04:57:15;;;;;;;21.75;15.73;;;;;;;;;;5092716;28;20232;-55
2022/09/15 04:59:41;;;;;;;21.92;16.25;;;;;;;;;;5091954;28;20304;-52
2022/09/15 05:02:08;;;;;;;20.98;15.82;;;;;;;;;;5089829;28;20225;-57
2022/09/15 05:04:35;;;;;;;22.92;16.30;;;;;;;;;;5092918;28;20305;-57
2022/09/15 05:07:02;;;;;;;24.90;16.10;;;;;;;;;;5082503;28;20230;-55
2022/09/15 05:09:30;;;;;;;20.77;15.80;;;;;;;;;;5085444;28;20218;-56
2022/09/15 05:11:57;;;;;;;18.15;14.27;;;;;;;;;;5082904;28;20231;-57
2022/09/15 05:14:23;;;;;;;21.77;15.43;;;;;;;;;;5081412;28;20219;-59
2022/09/15 05:16:51;;;;;;;22.10;15.48;;;;;;;;;;5075799;28;20216;-55
2022/09/15 05:19:18;;;;;;;23.33;16.33;;;;;;;;;;5074309;28;20223;-54
2022/09/15 05:21:45;;;;;;;22.02;15.88;;;;;;;;;;5073867;28;20290;-57
2022/09/15 05:24:12;;;;;;;20.33;16.15;;;;;;;;;;5074453;28;20524;-57
2022/09/15 05:26:40;;;;;;;22.52;16.75;;;;;;;;;;5074134;28;20264;-55
2022/09/15 05:29:07;;;;;;;23.30;16.25;;;;;;;;;;5074054;28;20229;-54
2022/09/15 05:31:34;;;;;;;21.27;16.42;;;;;;;;;;5074038;28;20651;-56
2022/09/15 05:34:03;;;;;;;23.50;17.25;;;;;;;;;;5074316;28;20210;-57
2022/09/15 05:36:31;;;;;;;26.17;18.08;;;;;;;;;;5073882;28;20212;-54
2022/09/15 05:38:59;;;;;;;21.60;16.40;;;;;;;;;;5072328;28;20633;-55
2022/09/15 05:41:27;;;;;;;20.75;16.50;;;;;;;;;;5073382;28;20294;-56
2022/09/15 05:43:55;;;;;;;26.15;17.20;;;;;;;;;;5074543;28;20272;-56
2022/09/15 05:46:26;;;;;;;24.17;17.42;;;;;;;;;;5075939;28;20237;-57
2022/09/15 05:48:56;;;;;;;26.38;18.75;;;;;;;;;;5076202;28;20294;-53
2022/09/15 05:51:23;;;;;;;25.73;19.45;;;;;;;;;;5076307;28;20207;-55
2022/09/15 05:53:50;;;;;;;29.02;20.02;;;;;;;;;;5076322;28;20203;-52
2022/09/15 05:56:18;;;;;;;24.52;19.02;;;;;;;;;;5076215;28;20468;-56
2022/09/15 05:58:46;;;;;;;26.75;19.83;;;;;;;;;;5075730;28;20209;-55
2022/09/15 06:01:19;;;;;;;31.42;21.63;;;;;;;;;;5076475;28;20280;-55
2022/09/15 06:03:46;;;;;;;30.10;22.05;;;;;;;;;;5077159;28;20678;-52
2022/09/15 06:06:14;;;;;;;31.27;21.83;;;;;;;;;;5076277;28;20199;-54
2022/09/15 06:08:43;;;;;;;31.67;22.73;;;;;;;;;;5077451;28;20199;-54
2022/09/15 06:11:17;;;;;;;33.53;23.58;;;;;;;;;;5076499;28;20210;-52
2022/09/15 06:13:46;;;;;;;33.13;23.05;;;;;;;;;;5075643;28;20179;-55
2022/09/15 06:16:18;;;;;;;33.60;23.70;;;;;;;;;;5077218;28;20297;-55
2022/09/15 06:18:46;;;;;;;32.78;22.73;;;;;;;;;;5076337;28;20265;-53
2022/09/15 06:21:16;;;;;;;28.98;21.92;;;;;;;;;;5076814;28;20273;-56
2022/09/15 06:23:43;;;;;;;27.83;21.13;;;;;;;;;;5075603;28;20299;-54
2022/09/15 06:26:18;;;;;;;29.25;21.50;;;;;;;;;;5077529;28;20280;-53
2022/09/15 06:28:52;;;;;;;27.65;20.77;;;;;;;;;;5077072;28;20200;-55
2022/09/15 06:31:20;;;;;;;28.02;21.90;;;;;;;;;;5077084;28;20202;-56
2022/09/15 06:33:52;;;;;;;32.03;21.73;;;;;;;;;;5076486;28;20235;-52
2022/09/15 06:36:21;;;;;;;29.48;23.00;;;;;;;;;;5076869;28;20203;-56
2022/09/15 06:38:48;;;;;;;35.42;24.35;;;;;;;;;;5076369;28;20654;-55
2022/09/15 06:41:15;;;;;;;35.95;24.48;;;;;;;;;;5075673;28;20207;-53
2022/09/15 06:43:43;;;;;;;31.80;23.63;;;;;;;;;;5076293;28;20231;-52
2022/09/15 06:46:13;;;;;;;32.30;25.50;;;;;;;;;;5075951;28;20227;-54
2022/09/15 06:48:40;;;;;;;35.88;25.42;;;;;;;;;;5075293;28;20195;-55
2022/09/15 06:51:12;;;;;;;36.58;26.92;;;;;;;;;;5074528;28;20249;-53
2022/09/15 06:53:39;;;;;;;38.38;27.35;;;;;;;;;;5074434;28;20284;-56
2022/09/15 06:56:12;;;;;;;40.40;28.05;;;;;;;;;;5075368;28;20203;-54
2022/09/15 06:58:41;;;;;;;36.90;26.65;;;;;;;;;;5076342;28;20199;-56
2022/09/15 07:01:14;;;;;;;37.97;27.60;;;;;;;;;;5075540;28;20211;-54
2022/09/15 07:03:42;;;;;;;36.85;26.25;;;;;;;;;;5075191;28;20214;-55
2022/09/15 07:06:11;;;;;;;37.25;28.42;;;;;;;;;;5075363;28;20710;-56
2022/09/15 07:08:38;;;;;;;35.58;26.50;;;;;;;;;;5075993;28;20233;-54
2022/09/15 07:11:06;;;;;;;39.47;28.17;;;;;;;;;;5074608;28;20218;-55
2022/09/15 07:13:33;;;;;;;38.38;28.25;;;;;;;;;;5074445;28;20296;-54
2022/09/15 07:16:02;;;;;;;49.20;30.70;;;;;;;;;;5075596;28;20213;-55
2022/09/15 07:18:30;;;;;;;54.53;34.78;;;;;;;;;;5076077;28;20214;-55
2022/09/15 07:21:06;;;;;;;55.63;35.35;;;;;;;;;;5076121;28;20195;-53
2022/09/15 07:23:34;;;;;;;59.05;34.80;;;;;;;;;;5075369;28;20546;-55
2022/09/15 07:26:05;;;;;;;51.60;33.88;;;;;;;;;;5074062;28;20219;-56
2022/09/15 07:28:33;;;;;;;61.88;37.28;;;;;;;;;;5075028;28;20284;-54
2022/09/15 07:31:00;;;;;;;65.93;40.67;;;;;;;;;;5075812;28;20203;-54
2022/09/15 07:33:27;;;;;;;69.85;42.75;;;;;;;;;;5074936;28;20655;-55
2022/09/15 07:35:54;;;;;;;67.05;42.45;;;;;;;;;;5075594;28;20199;-54
2022/09/15 07:38:21;;;;;;;67.85;40.80;;;;;;;;;;5072920;28;20207;-56
2022/09/15 07:40:48;;;;;;;45.55;31.55;;;;;;;;;;5075101;28;20294;-52
2022/09/15 07:43:15;;;;;;;47.22;30.00;;;;;;;;;;5074407;28;20294;-55
2022/09/15 07:45:42;;;;;;;38.90;28.50;;;;;;;;;;5074655;28;20235;-55
2022/09/15 07:48:09;;;;;;;34.97;25.92;;;;;;;;;;5074820;28;20195;-55
2022/09/15 07:50:36;;;;;;;31.75;24.05;;;;;;;;;;5073961;28;20727;-56
2022/09/15 07:53:03;;;;;;;31.20;22.25;;;;;;;;;;5073274;28;20246;-55
2022/09/15 07:55:30;;;;;;;24.25;18.92;;;;;;;;;;5056275;28;20210;-54
2022/09/15 07:57:58;;;;;;;23.70;19.05;;;;;;;;;;5075125;28;20285;-54
2022/09/15 08:00:26;;;;;;;24.30;17.95;;;;;;;;;;5075221;28;20207;-53
2022/09/15 08:02:53;;;;;;;24.38;18.83;;;;;;;;;;5074732;28;20204;-53
2022/09/15 08:05:21;;;;;;;22.77;17.33;;;;;;;;;;5074569;28;20207;-56
2022/09/15 08:07:49;;;;;;;21.25;16.23;;;;;;;;;;5074693;28;20202;-55
2022/09/15 08:10:15;;;;;;;21.02;16.55;;;;;;;;;;5074935;28;20203;-51
2022/09/15 08:12:42;;;;;;;25.52;19.45;;;;;;;;;;5074656;28;20598;-58
2022/09/15 08:15:10;;;;;;;29.02;21.98;;;;;;;;;;5074490;28;20278;-56
2022/09/15 08:17:37;;;;;;;29.85;24.33;;;;;;;;;;5073554;28;20631;-55
2022/09/15 08:20:04;;;;;;;32.15;24.85;;;;;;;;;;5074317;28;20203;-55
2022/09/15 08:22:31;;;;;;;29.83;24.90;;;;;;;;;;5074441;28;20689;-58
2022/09/15 08:24:58;;;;;;;34.50;26.13;;;;;;;;;;5075744;28;20596;-51
2022/09/15 08:27:25;;;;;;;35.42;26.88;;;;;;;;;;5075287;28;20238;-57
2022/09/15 08:29:52;;;;;;;32.85;24.02;;;;;;;;;;5075020;28;20276;-53
2022/09/15 08:32:19;;;;;;;27.02;21.63;;;;;;;;;;5074748;28;20656;-55
2022/09/15 08:34:46;;;;;;;28.38;21.35;;;;;;;;;;5073860;28;20199;-55
2022/09/15 08:37:14;;;;;;;29.10;22.02;;;;;;;;;;5074769;28;20218;-54
2022/09/15 08:39:41;;;;;;;27.33;21.10;;;;;;;;;;5074306;28;20294;-52
2022/09/15 08:42:13;;;;;;;25.42;20.52;;;;;;;;;;5074012;28;20206;-54
2022/09/15 08:44:48;;;;;;;25.20;19.42;;;;;;;;;;5074339;28;20240;-55
2022/09/15 08:47:31;;;;;;;28.10;19.25;;;;;;;;;;5074378;28;20270;-55
2022/09/15 08:50:23;;;;;;;26.35;18.83;;;;;;;;;;5074742;28;20214;-54
2022/09/15 08:52:54;;;;;;;24.20;20.38;;;;;;;;;;5073985;28;20306;-54
2022/09/15 08:55:44;;;;;;;25.73;19.42;;;;;;;;;;5073736;28;20199;-54
2022/09/15 08:58:14;;;;;;;25.10;19.50;;;;;;;;;;5072802;28;20235;-54
2022/09/15 09:00:44;;;;;;;25.00;19.50;;;;;;;;;;5073454;28;20214;-54
2022/09/15 09:03:11;;;;;;;23.90;18.98;;;;;;;;;;5072942;28;20603;-57
2022/09/15 09:05:46;;;;;;;24.42;17.05;;;;;;;;;;5073730;28;20195;-54
2022/09/15 09:08:21;;;;;;;23.95;17.50;;;;;;;;;;5073142;28;20217;-55
2022/09/15 09:10:51;;;;;;;24.08;18.00;;;;;;;;;;5074677;28;20199;-53
2022/09/15 09:13:37;;;;;;;23.73;18.23;;;;;;;;;;5074216;28;20269;-55
2022/09/15 09:16:16;;;;;;;24.95;18.60;;;;;;;;;;5073482;28;20184;-56
2022/09/15 09:19:05;;;;;;;22.02;16.63;;;;;;;;;;5073584;28;20199;-55
2022/09/15 09:21:45;;;;;;;23.70;18.30;;;;;;;;;;5078275;28;20251;-57
2022/09/15 09:24:16;;;;;;;25.83;19.10;;;;;;;;;;5076651;28;20593;-56
2022/09/15 09:26:47;;;;;;;27.13;21.20;;;;;;;;;;5077402;28;20199;-55
2022/09/15 09:29:19;;;;;;;28.08;21.73;;;;;;;;;;5077061;28;20527;-54
2022/09/15 09:31:48;;;;;;;27.30;20.30;;;;;;;;;;5077682;28;20294;-54
2022/09/15 09:34:42;;;;;;;24.40;19.75;;;;;;;;;;5077747;28;20733;-56
2022/09/15 09:37:11;;;;;;;24.20;18.83;;;;;;;;;;5060309;28;20219;-56
2022/09/15 09:39:39;;;;;;;27.08;20.58;;;;;;;;;;5077999;28;20207;-55
2022/09/15 09:42:06;;;;;;;22.30;17.13;;;;;;;;;;5077530;28;20305;-55
2022/09/15 09:44:33;;;;;;;22.88;18.80;;;;;;;;;;5077213;28;20290;-57
2022/09/15 09:47:01;;;;;;;22.52;17.02;;;;;;;;;;5077113;28;20203;-56
2022/09/15 09:49:37;;;;;;;19.45;16.38;;;;;;;;;;5077060;28;20200;-54
2022/09/15 09:52:04;;;;;;;20.38;16.65;;;;;;;;;;5076454;28;20600;-55
2022/09/15 09:54:32;;;;;;;20.25;14.57;;;;;;;;;;5077320;28;20223;-54
2022/09/15 09:57:35;;;;;;;16.63;13.65;;;;;;;;;;5077980;28;20207;-56
2022/09/15 10:00:29;;;;;;;19.33;14.18;;;;;;;;;;5035939;28;20216;-55
2022/09/15 10:02:56;;;;;;;23.45;14.70;;;;;;;;;;5035913;28;20661;-54
2022/09/15 10:05:23;;;;;;;19.13;13.93;;;;;;;;;;5035737;28;20236;-52
2022/09/15 10:07:50;;;;;;;17.77;15.20;;;;;;;;;;5035434;28;20201;-56
2022/09/15 10:10:20;;;;;;;16.77;14.98;;;;;;;;;;5033600;28;20200;-55
2022/09/15 10:12:47;;;;;;;18.27;14.57;;;;;;;;;;5033223;28;20212;-55
2022/09/15 10:15:25;;;;;;;20.20;14.07;;;;;;;;;;5034556;28;20211;-53
2022/09/15 10:17:54;;;;;;;16.42;13.15;;;;;;;;;;5033476;28;20637;-56
2022/09/15 10:20:27;;;;;;;16.67;13.80;;;;;;;;;;5034757;28;20234;-54
2022/09/15 10:23:12;;;;;;;17.00;13.27;;;;;;;;;;5035075;28;20591;-54
2022/09/15 10:25:39;;;;;;;19.80;13.00;;;;;;;;;;5035782;28;20247;-55
2022/09/15 10:28:26;;;;;;;17.70;12.63;;;;;;;;;;5034880;28;20231;-57
2022/09/15 10:30:58;;;;;;;17.60;12.90;;;;;;;;;;5035122;28;20204;-54
2022/09/15 10:33:31;;;;;;;16.33;12.52;;;;;;;;;;5045281;28;20230;-56
2022/09/15 10:36:02;;;;;;;15.15;11.60;;;;;;;;;;5077533;28;20188;-55
2022/09/15 10:38:38;;;;;;;18.05;12.65;;;;;;;;;;5076535;28;20248;-56
2022/09/15 10:41:29;;;;;;;20.95;13.02;;;;;;;;;;5076108;28;20199;-52
2022/09/15 10:44:21;;;;;;;15.93;12.15;;;;;;;;;;5075821;28;20664;-54
2022/09/15 10:46:57;;;;;;;20.48;12.93;;;;;;;;;;5077278;28;20231;-53
2022/09/15 10:49:37;;;;;;;16.20;11.73;;;;;;;;;;5075407;28;20261;-53
2022/09/15 10:52:19;;;;;;;17.00;12.52;;;;;;;;;;5076435;28;20261;-55
2022/09/15 10:55:33;;;;;;;19.20;11.63;;;;;;;;;;5076282;28;20212;-56
2022/09/15 10:58:40;;;;;;;18.77;11.98;;;;;;;;;;5034782;28;20189;-54
2022/09/15 11:01:29;;;;;;;17.35;11.45;;;;;;;;;;5019071;28;20216;-56
2022/09/15 11:04:17;;;;;;;16.85;10.77;;;;;;;;;;5034819;28;20649;-55
2022/09/15 11:06:58;;;;;;;15.48;11.77;;;;;;;;;;5034296;28;20307;-55
2022/09/15 11:09:33;;;;;;;15.63;12.20;;;;;;;;;;5032492;28;20509;-56
2022/09/15 11:12:06;;;;;;;15.68;11.68;;;;;;;;;;5034249;28;20350;-55
2022/09/15 11:14:49;;;;;;;18.02;12.85;;;;;;;;;;5034151;28;20212;-54
2022/09/15 11:17:38;;;;;;;21.27;13.20;;;;;;;;;;5034016;28;20200;-53
2022/09/15 11:20:24;;;;;;;18.95;13.15;;;;;;;;;;5017642;28;20200;-54
2022/09/15 11:23:10;;;;;;;17.95;11.15;;;;;;;;;;5034156;28;20204;-56
2022/09/15 11:25:43;;;;;;;20.48;11.60;;;;;;;;;;5034084;28;20247;-55
2022/09/15 11:28:16;;;;;;;15.57;10.05;;;;;;;;;;5017883;28;20188;-56
2022/09/15 11:31:10;;;;;;;17.67;11.25;;;;;;;;;;5036620;28;20274;-54
2022/09/15 11:33:43;;;;;;;17.00;10.95;;;;;;;;;;5075600;28;20250;-55
2022/09/15 11:36:12;;;;;;;15.98;10.35;;;;;;;;;;5075529;28;20191;-56
2022/09/15 11:39:12;;;;;;;14.05;9.45;;;;;;;;;;5075966;28;20290;-55
2022/09/15 11:41:43;;;;;;;15.13;9.88;;;;;;;;;;5074349;28;20204;-57
2022/09/15 11:44:21;;;;;;;14.32;9.88;;;;;;;;;;5074784;28;20214;-57
2022/09/15 11:47:00;;;;;;;14.35;9.27;;;;;;;;;;5060456;28;20233;-56
2022/09/15 11:49:49;;;;;;;13.68;9.43;;;;;;;;;;5083539;28;20218;-58
2022/09/15 11:52:23;;;;;;;17.65;8.77;;;;;;;;;;5084037;28;20368;-58
2022/09/15 11:55:00;;;;;;;13.40;9.05;;;;;;;;;;5080610;28;20207;-57
2022/09/15 11:57:39;;;;;;;15.38;9.23;;;;;;;;;;5080752;28;20195;-56
2022/09/15 12:00:11;;;;;;;14.13;9.15;;;;;;;;;;5079181;28;20623;-56
2022/09/15 12:02:46;;;;;;;20.58;9.40;;;;;;;;;;5082842;28;20211;-57
2022/09/15 12:05:17;;;;;;;15.45;8.80;;;;;;;;;;5083939;28;20272;-58
2022/09/15 12:07:48;;;;;;;17.02;9.10;;;;;;;;;;5083562;28;20198;-57
2022/09/15 12:10:29;;;;;;;15.15;8.23;;;;;;;;;;5083212;28;20199;-59
2022/09/15 12:12:59;;;;;;;13.75;8.10;;;;;;;;;;5081584;28;20195;-58
2022/09/15 12:15:26;;;;;;;13.90;9.02;;;;;;;;;;5080685;28;20293;-58
2022/09/15 12:18:03;;;;;;;16.33;8.93;;;;;;;;;;5083152;28;20204;-59
2022/09/15 12:20:46;;;;;;;17.92;8.82;;;;;;;;;;5084628;28;20244;-59
2022/09/15 12:23:33;;;;;;;14.20;7.68;;;;;;;;;;5082701;28;20194;-59
2022/09/15 12:26:04;;;;;;;16.40;9.15;;;;;;;;;;5083633;28;20194;-58
2022/09/15 12:28:50;;;;;;;10.73;7.18;;;;;;;;;;5082878;28;20531;-58
2022/09/15 12:31:38;;;;;;;10.77;7.00;;;;;;;;;;5065200;28;20244;-59
2022/09/15 12:34:23;;;;;;;11.80;6.75;;;;;;;;;;5068922;28;20280;-59
2022/09/15 12:36:54;;;;;;;10.65;6.07;;;;;;;;;;5080531;28;20222;-59
2022/09/15 12:39:31;;;;;;;10.98;6.32;;;;;;;;;;5074262;28;20253;-59
2022/09/15 12:41:58;;;;;;;12.18;6.78;;;;;;;;;;5071587;28;20218;-59
2022/09/15 12:44:35;;;;;;;13.43;7.28;;;;;;;;;;5074761;28;20253;-59
2022/09/15 12:47:04;;;;;;;12.40;6.18;;;;;;;;;;5076294;28;20280;-59
2022/09/15 12:49:34;;;;;;;14.30;6.38;;;;;;;;;;5076424;28;20254;-59
2022/09/15 12:52:04;;;;;;;12.27;6.05;;;;;;;;;;5071233;28;20276;-59
2022/09/15 12:54:32;;;;;;;15.38;6.18;;;;;;;;;;5080492;28;20234;-59
2022/09/15 12:56:59;;;;;;;10.43;6.20;;;;;;;;;;5084893;28;20212;-59
2022/09/15 12:59:27;;;;;;;10.10;5.43;;;;;;;;;;5077561;28;20227;-59
2022/09/15 13:01:55;;;;;;;11.75;5.57;;;;;;;;;;5058998;28;20726;-59
2022/09/15 13:04:40;;;;;;;8.15;5.20;;;;;;;;;;5086191;28;20199;-59
2022/09/15 13:07:17;;;;;;;11.55;5.13;;;;;;;;;;5087355;28;20190;-59
2022/09/15 13:10:16;;;;;;;8.57;4.95;;;;;;;;;;5086585;28;20449;-59
2022/09/15 13:12:50;;;;;;;19.13;5.45;;;;;;;;;;5089303;28;20229;-59
2022/09/15 13:15:17;;;;;;;13.35;4.72;;;;;;;;;;5085730;28;20656;-58
2022/09/15 13:17:45;;;;;;;12.45;4.75;;;;;;;;;;5082834;28;20192;-59
2022/09/15 13:20:16;;;;;;;9.10;4.55;;;;;;;;;;5087502;28;20221;-59
2022/09/15 13:22:47;;;;;;;11.00;4.80;;;;;;;;;;5097079;28;20224;-59
2022/09/15 13:25:18;;;;;;;9.18;3.95;;;;;;;;;;5097212;28;20191;-58
2022/09/15 13:27:53;;;;;;;7.88;4.03;;;;;;;;;;5094375;28;20283;-59
2022/09/15 13:30:39;;;;;;;10.23;4.10;;;;;;;;;;5077227;28;20199;-59
2022/09/15 13:33:09;;;;;;;1999.90;552.53;;;;;;;;;;5060210;28;20221;-59
2022/09/15 13:35:51;;;;;;;1999.90;531.00;;;;;;;;;;5074991;28;20682;-59
2022/09/15 13:38:24;;;;;;;1680.10;254.98;;;;;;;;;;5075908;28;20587;-59
2022/09/15 13:40:57;;;;;;;1999.90;632.47;;;;;;;;;;5076389;28;20275;-59
2022/09/15 13:43:47;;;;;;;75.30;21.05;;;;;;;;;;5077329;28;20211;-59
2022/09/15 13:46:40;;;;;;;651.78;88.72;;;;;;;;;;5076805;28;20235;-58
2022/09/15 13:49:31;;;;;;;24.35;7.97;;;;;;;;;;5052911;28;20290;-59
2022/09/15 13:52:16;;;;;;;270.98;27.58;;;;;;;;;;5075479;28;20546;-58
2022/09/15 13:55:17;;;;;;;751.05;86.05;;;;;;;;;;5076108;28;20269;-58
2022/09/15 13:57:48;;;;;;;37.55;5.93;;;;;;;;;;5082592;28;20252;-59
2022/09/15 14:00:46;;;;;;;14.32;5.20;;;;;;;;;;5086301;28;20742;-58
2022/09/15 14:03:17;;;;;;;15.85;4.20;;;;;;;;;;5083034;28;20616;-58
2022/09/15 14:05:44;;;;;;;11.43;4.10;;;;;;;;;;5079234;28;20199;-59
2022/09/15 14:08:14;;;;;;;18.40;4.10;;;;;;;;;;5084695;28;20281;-58
2022/09/15 14:10:49;;;;;;;9.35;3.60;;;;;;;;;;5084913;28;20210;-58
2022/09/15 14:13:18;;;;;;;10.93;3.70;;;;;;;;;;5084841;28;20281;-58
2022/09/15 14:15:56;;;;;;;9.68;3.13;;;;;;;;;;5093478;28;20260;-59
2022/09/15 14:18:23;;;;;;;12.00;4.10;;;;;;;;;;5093530;28;20218;-59
2022/09/15 14:21:01;;;;;;;10.30;3.75;;;;;;;;;;5063240;28;20670;-59
2022/09/15 14:23:29;;;;;;;9.75;3.47;;;;;;;;;;5072796;28;20233;-59
2022/09/15 14:25:59;;;;;;;9.98;4.00;;;;;;;;;;5063923;28;20228;-59
2022/09/15 14:28:30;;;;;;;8.30;3.85;;;;;;;;;;5056335;28;20236;-59
2022/09/15 14:30:59;;;;;;;9.55;3.28;;;;;;;;;;5064821;28;20227;-59
2022/09/15 14:33:38;;;;;;;6.40;3.38;;;;;;;;;;5062517;28;20224;-59
2022/09/15 14:36:24;;;;;;;6.80;3.30;;;;;;;;;;5052875;28;20242;-59
2022/09/15 14:39:22;;;;;;;12.25;3.28;;;;;;;;;;5073284;28;20314;-59
2022/09/15 14:41:50;;;;;;;6.82;3.35;;;;;;;;;;5071921;28;20266;-59
2022/09/15 14:47:18;;;;;;;24.25;3.45;;;;;;;;;;5081434;28;20564;-58
2022/09/15 14:49:45;;;;;;;8.48;3.00;;;;;;;;;;5055949;28;20246;-58
2022/09/15 14:52:29;;;;;;;9.38;3.30;;;;;;;;;;5051527;28;20700;-58
2022/09/15 14:55:00;;;;;;;5.32;3.35;;;;;;;;;;5056707;28;20195;-58